Hondo, Texas
Current Conditions -  °F | °C
As of 6:51 AM on Friday 24 Oct 2014 (Local Time) from KHDO Reporting Station
Clear Clear  
Wind Chill: 53°   Ceiling: Unl
Heat Index: 53°   Visibility: 10mi
Dew Point: 53°   Wind: 6mph
Humidity: 100%   Direction: 10°N
Pressure: 30.15"   Gusts: NA
Location:  29.35°N, 99.14°W
Report Text: KHDO 241151Z AUTO 01005KT 10SM CLR 12/12 A3015 RMK AO2 SLP200 T01170117 10150 20117 53002
Loading
Personal Weather Stations






























Interactive Weather Map New forecast layout! Learn more

10-Day Weather Forecast

Advertisements
Track Severe Weather on mobile